sensor_id;sensor_type;location;lat;lon;timestamp;temperature;humidity
35700;DHT22;21818;51.078;12.108;2023-06-26T00:02:20;22.10;93.20
35700;DHT22;21818;51.078;12.108;2023-06-26T00:04:45;22.00;93.30
35700;DHT22;21818;51.078;12.108;2023-06-26T00:07:11;22.00;93.20
35700;DHT22;21818;51.078;12.108;2023-06-26T00:09:37;22.00;93.10
35700;DHT22;21818;51.078;12.108;2023-06-26T00:12:03;22.00;93.10
35700;DHT22;21818;51.078;12.108;2023-06-26T00:14:29;21.80;93.20
35700;DHT22;21818;51.078;12.108;2023-06-26T00:16:54;21.90;93.10
35700;DHT22;21818;51.078;12.108;2023-06-26T00:19:20;21.90;93.10
35700;DHT22;21818;51.078;12.108;2023-06-26T00:21:45;22.00;93.10
35700;DHT22;21818;51.078;12.108;2023-06-26T00:24:14;22.00;93.00
35700;DHT22;21818;51.078;12.108;2023-06-26T00:26:40;22.00;93.00
35700;DHT22;21818;51.078;12.108;2023-06-26T00:29:06;22.00;93.00
35700;DHT22;21818;51.078;12.108;2023-06-26T00:31:31;21.90;93.00
35700;DHT22;21818;51.078;12.108;2023-06-26T00:33:57;21.90;93.00
35700;DHT22;21818;51.078;12.108;2023-06-26T00:36:22;21.70;93.10
35700;DHT22;21818;51.078;12.108;2023-06-26T00:38:49;21.70;93.30
35700;DHT22;21818;51.078;12.108;2023-06-26T00:41:15;21.70;93.20
35700;DHT22;21818;51.078;12.108;2023-06-26T00:43:41;21.70;93.20
35700;DHT22;21818;51.078;12.108;2023-06-26T00:46:09;21.80;93.10
35700;DHT22;21818;51.078;12.108;2023-06-26T00:48:36;21.70;93.10
35700;DHT22;21818;51.078;12.108;2023-06-26T00:51:02;21.70;93.10
35700;DHT22;21818;51.078;12.108;2023-06-26T00:53:28;21.70;93.20
35700;DHT22;21818;51.078;12.108;2023-06-26T00:55:54;21.70;93.20
35700;DHT22;21818;51.078;12.108;2023-06-26T00:58:22;21.70;93.10
35700;DHT22;21818;51.078;12.108;2023-06-26T01:00:49;21.80;93.00
35700;DHT22;21818;51.078;12.108;2023-06-26T01:03:15;21.80;92.90
35700;DHT22;21818;51.078;12.108;2023-06-26T01:05:40;21.80;93.00
35700;DHT22;21818;51.078;12.108;2023-06-26T01:08:07;21.80;93.00
35700;DHT22;21818;51.078;12.108;2023-06-26T01:10:34;21.80;92.90
35700;DHT22;21818;51.078;12.108;2023-06-26T01:12:59;21.60;93.10
35700;DHT22;21818;51.078;12.108;2023-06-26T01:15:25;21.40;93.40
35700;DHT22;21818;51.078;12.108;2023-06-26T01:17:51;21.40;93.40
35700;DHT22;21818;51.078;12.108;2023-06-26T01:20:17;21.30;93.50
35700;DHT22;21818;51.078;12.108;2023-06-26T01:28:34;21.30;93.50
35700;DHT22;21818;51.078;12.108;2023-06-26T01:31:01;21.30;93.40
35700;DHT22;21818;51.078;12.108;2023-06-26T01:33:27;21.30;93.50
35700;DHT22;21818;51.078;12.108;2023-06-26T01:35:53;21.20;93.50
35700;DHT22;21818;51.078;12.108;2023-06-26T01:38:20;21.10;93.70
35700;DHT22;21818;51.078;12.108;2023-06-26T01:40:46;21.10;93.60
35700;DHT22;21818;51.078;12.108;2023-06-26T01:43:29;21.00;93.80
35700;DHT22;21818;51.078;12.108;2023-06-26T01:46:08;20.90;93.90
35700;DHT22;21818;51.078;12.108;2023-06-26T01:48:40;20.80;94.00
35700;DHT22;21818;51.078;12.108;2023-06-26T01:51:08;20.60;94.10
35700;DHT22;21818;51.078;12.108;2023-06-26T01:53:39;20.50;94.20
35700;DHT22;21818;51.078;12.108;2023-06-26T01:56:08;20.40;94.30
35700;DHT22;21818;51.078;12.108;2023-06-26T01:58:41;20.40;94.40
35700;DHT22;21818;51.078;12.108;2023-06-26T02:01:08;20.30;94.50
35700;DHT22;21818;51.078;12.108;2023-06-26T02:03:34;20.20;94.50
35700;DHT22;21818;51.078;12.108;2023-06-26T02:05:59;20.20;94.50
35700;DHT22;21818;51.078;12.108;2023-06-26T02:08:25;20.30;94.40
35700;DHT22;21818;51.078;12.108;2023-06-26T02:10:50;20.40;94.40
35700;DHT22;21818;51.078;12.108;2023-06-26T02:13:16;20.40;94.40
35700;DHT22;21818;51.078;12.108;2023-06-26T02:15:41;20.40;94.40
35700;DHT22;21818;51.078;12.108;2023-06-26T02:18:07;20.40;94.40
35700;DHT22;21818;51.078;12.108;2023-06-26T02:20:32;20.40;94.40
35700;DHT22;21818;51.078;12.108;2023-06-26T02:22:58;20.40;94.50
35700;DHT22;21818;51.078;12.108;2023-06-26T02:25:24;20.20;94.60
35700;DHT22;21818;51.078;12.108;2023-06-26T02:27:50;20.20;94.70
35700;DHT22;21818;51.078;12.108;2023-06-26T02:30:15;20.20;94.80
35700;DHT22;21818;51.078;12.108;2023-06-26T02:32:41;20.10;94.80
35700;DHT22;21818;51.078;12.108;2023-06-26T02:35:07;20.10;94.80
35700;DHT22;21818;51.078;12.108;2023-06-26T02:37:32;20.00;94.90
35700;DHT22;21818;51.078;12.108;2023-06-26T02:39:58;19.90;95.00
35700;DHT22;21818;51.078;12.108;2023-06-26T02:42:23;19.80;95.20
35700;DHT22;21818;51.078;12.108;2023-06-26T02:44:49;19.70;95.20
35700;DHT22;21818;51.078;12.108;2023-06-26T02:47:15;19.60;95.30
35700;DHT22;21818;51.078;12.108;2023-06-26T02:49:40;19.50;95.40
35700;DHT22;21818;51.078;12.108;2023-06-26T02:52:06;19.50;95.40
35700;DHT22;21818;51.078;12.108;2023-06-26T02:54:31;19.50;95.40
35700;DHT22;21818;51.078;12.108;2023-06-26T02:56:58;19.50;95.50
35700;DHT22;21818;51.078;12.108;2023-06-26T02:59:24;19.40;95.50
35700;DHT22;21818;51.078;12.108;2023-06-26T03:01:50;19.40;95.60
35700;DHT22;21818;51.078;12.108;2023-06-26T03:04:16;19.30;95.80
35700;DHT22;21818;51.078;12.108;2023-06-26T03:06:43;19.30;95.70
35700;DHT22;21818;51.078;12.108;2023-06-26T03:09:09;19.30;95.90
35700;DHT22;21818;51.078;12.108;2023-06-26T03:11:34;19.30;95.80
35700;DHT22;21818;51.078;12.108;2023-06-26T03:14:00;19.30;95.80
35700;DHT22;21818;51.078;12.108;2023-06-26T03:16:25;19.30;95.90
35700;DHT22;21818;51.078;12.108;2023-06-26T03:18:51;19.40;95.90
35700;DHT22;21818;51.078;12.108;2023-06-26T03:21:17;19.50;95.80
35700;DHT22;21818;51.078;12.108;2023-06-26T03:23:43;19.50;95.70
35700;DHT22;21818;51.078;12.108;2023-06-26T03:26:08;19.60;95.60
35700;DHT22;21818;51.078;12.108;2023-06-26T03:28:34;19.60;95.50
35700;DHT22;21818;51.078;12.108;2023-06-26T03:30:59;19.70;95.50
35700;DHT22;21818;51.078;12.108;2023-06-26T03:33:25;19.60;95.50
35700;DHT22;21818;51.078;12.108;2023-06-26T03:35:50;19.50;95.90
35700;DHT22;21818;51.078;12.108;2023-06-26T03:38:16;19.60;95.70
35700;DHT22;21818;51.078;12.108;2023-06-26T03:40:41;19.80;95.40
35700;DHT22;21818;51.078;12.108;2023-06-26T03:43:07;19.90;95.30
35700;DHT22;21818;51.078;12.108;2023-06-26T03:45:32;20.00;95.20
35700;DHT22;21818;51.078;12.108;2023-06-26T03:47:58;20.10;95.00
35700;DHT22;21818;51.078;12.108;2023-06-26T03:50:23;20.20;94.80
35700;DHT22;21818;51.078;12.108;2023-06-26T03:52:49;20.20;94.80
35700;DHT22;21818;51.078;12.108;2023-06-26T03:55:17;20.20;94.60
35700;DHT22;21818;51.078;12.108;2023-06-26T03:57:42;20.20;94.70
35700;DHT22;21818;51.078;12.108;2023-06-26T04:00:09;20.10;94.80
35700;DHT22;21818;51.078;12.108;2023-06-26T04:02:35;20.20;94.70
35700;DHT22;21818;51.078;12.108;2023-06-26T04:05:01;20.20;94.60
35700;DHT22;21818;51.078;12.108;2023-06-26T04:07:26;20.20;94.60
35700;DHT22;21818;51.078;12.108;2023-06-26T04:09:52;20.20;94.60
35700;DHT22;21818;51.078;12.108;2023-06-26T04:12:18;20.40;94.40
35700;DHT22;21818;51.078;12.108;2023-06-26T04:14:43;20.40;94.30
35700;DHT22;21818;51.078;12.108;2023-06-26T04:17:10;20.50;94.10
35700;DHT22;21818;51.078;12.108;2023-06-26T04:19:35;20.50;94.00
35700;DHT22;21818;51.078;12.108;2023-06-26T04:22:02;20.50;94.10
35700;DHT22;21818;51.078;12.108;2023-06-26T04:24:27;20.60;94.10
35700;DHT22;21818;51.078;12.108;2023-06-26T04:26:53;20.60;94.00
35700;DHT22;21818;51.078;12.108;2023-06-26T04:29:22;20.60;94.00
35700;DHT22;21818;51.078;12.108;2023-06-26T04:31:51;20.60;94.10
35700;DHT22;21818;51.078;12.108;2023-06-26T04:34:17;20.60;94.10
35700;DHT22;21818;51.078;12.108;2023-06-26T04:36:42;20.70;94.00
35700;DHT22;21818;51.078;12.108;2023-06-26T04:39:11;20.70;94.00
35700;DHT22;21818;51.078;12.108;2023-06-26T04:41:37;20.70;94.10
35700;DHT22;21818;51.078;12.108;2023-06-26T04:44:03;20.70;94.20
35700;DHT22;21818;51.078;12.108;2023-06-26T04:46:28;20.70;94.20
35700;DHT22;21818;51.078;12.108;2023-06-26T04:48:54;20.70;94.40
35700;DHT22;21818;51.078;12.108;2023-06-26T04:51:19;20.70;94.30
35700;DHT22;21818;51.078;12.108;2023-06-26T04:53:46;20.80;94.20
35700;DHT22;21818;51.078;12.108;2023-06-26T04:56:11;20.90;94.20
35700;DHT22;21818;51.078;12.108;2023-06-26T04:58:37;20.90;94.20
35700;DHT22;21818;51.078;12.108;2023-06-26T05:01:03;20.90;94.30
35700;DHT22;21818;51.078;12.108;2023-06-26T05:03:32;20.90;94.30
35700;DHT22;21818;51.078;12.108;2023-06-26T05:05:57;21.00;94.20
35700;DHT22;21818;51.078;12.108;2023-06-26T05:08:26;21.00;94.10
35700;DHT22;21818;51.078;12.108;2023-06-26T05:10:52;21.10;94.00
35700;DHT22;21818;51.078;12.108;2023-06-26T05:13:24;21.30;93.80
35700;DHT22;21818;51.078;12.108;2023-06-26T05:15:51;21.30;93.60
35700;DHT22;21818;51.078;12.108;2023-06-26T05:18:17;21.30;93.70
35700;DHT22;21818;51.078;12.108;2023-06-26T05:20:43;21.40;93.60
35700;DHT22;21818;51.078;12.108;2023-06-26T05:23:10;21.40;93.70
35700;DHT22;21818;51.078;12.108;2023-06-26T05:25:36;21.50;93.60
35700;DHT22;21818;51.078;12.108;2023-06-26T05:28:03;21.60;93.40
35700;DHT22;21818;51.078;12.108;2023-06-26T05:30:31;21.70;93.20
35700;DHT22;21818;51.078;12.108;2023-06-26T05:32:59;21.80;93.00
35700;DHT22;21818;51.078;12.108;2023-06-26T05:35:28;21.90;92.90
35700;DHT22;21818;51.078;12.108;2023-06-26T05:37:56;22.20;92.80
35700;DHT22;21818;51.078;12.108;2023-06-26T05:40:22;22.50;92.60
35700;DHT22;21818;51.078;12.108;2023-06-26T05:42:48;22.80;92.40
35700;DHT22;21818;51.078;12.108;2023-06-26T05:45:14;22.90;92.30
35700;DHT22;21818;51.078;12.108;2023-06-26T05:47:39;23.00;92.10
35700;DHT22;21818;51.078;12.108;2023-06-26T05:50:06;23.10;92.00
35700;DHT22;21818;51.078;12.108;2023-06-26T05:52:32;23.20;92.00
35700;DHT22;21818;51.078;12.108;2023-06-26T05:54:58;23.20;91.90
35700;DHT22;21818;51.078;12.108;2023-06-26T05:57:29;23.30;91.80
35700;DHT22;21818;51.078;12.108;2023-06-26T05:59:55;23.30;91.70
35700;DHT22;21818;51.078;12.108;2023-06-26T06:02:22;23.40;91.70
35700;DHT22;21818;51.078;12.108;2023-06-26T06:04:47;23.40;91.60
35700;DHT22;21818;51.078;12.108;2023-06-26T06:07:13;23.50;91.60
35700;DHT22;21818;51.078;12.108;2023-06-26T06:09:39;23.50;91.70
35700;DHT22;21818;51.078;12.108;2023-06-26T06:12:05;23.50;91.40
35700;DHT22;21818;51.078;12.108;2023-06-26T06:14:32;23.50;91.40
35700;DHT22;21818;51.078;12.108;2023-06-26T06:16:57;23.50;91.30
35700;DHT22;21818;51.078;12.108;2023-06-26T06:19:23;23.60;91.20
35700;DHT22;21818;51.078;12.108;2023-06-26T06:21:48;23.60;91.20
35700;DHT22;21818;51.078;12.108;2023-06-26T06:24:14;23.60;91.10
35700;DHT22;21818;51.078;12.108;2023-06-26T06:26:39;23.60;91.10
35700;DHT22;21818;51.078;12.108;2023-06-26T06:29:05;23.70;91.10
35700;DHT22;21818;51.078;12.108;2023-06-26T06:31:31;23.70;91.00
35700;DHT22;21818;51.078;12.108;2023-06-26T06:33:57;23.70;91.00
35700;DHT22;21818;51.078;12.108;2023-06-26T06:36:22;23.70;90.90
35700;DHT22;21818;51.078;12.108;2023-06-26T06:38:48;23.80;90.90
35700;DHT22;21818;51.078;12.108;2023-06-26T06:41:13;23.80;90.90
35700;DHT22;21818;51.078;12.108;2023-06-26T06:43:39;23.80;90.80
35700;DHT22;21818;51.078;12.108;2023-06-26T06:46:05;23.80;90.80
35700;DHT22;21818;51.078;12.108;2023-06-26T06:48:31;23.80;90.70
35700;DHT22;21818;51.078;12.108;2023-06-26T06:50:57;23.90;90.70
35700;DHT22;21818;51.078;12.108;2023-06-26T06:53:23;23.90;90.70
35700;DHT22;21818;51.078;12.108;2023-06-26T06:55:51;23.90;90.60
35700;DHT22;21818;51.078;12.108;2023-06-26T06:58:16;23.90;90.80
35700;DHT22;21818;51.078;12.108;2023-06-26T07:00:44;23.90;90.50
35700;DHT22;21818;51.078;12.108;2023-06-26T07:03:10;23.90;90.50
35700;DHT22;21818;51.078;12.108;2023-06-26T07:05:35;24.00;90.50
35700;DHT22;21818;51.078;12.108;2023-06-26T07:08:01;24.00;90.70
35700;DHT22;21818;51.078;12.108;2023-06-26T07:10:27;24.00;90.40
35700;DHT22;21818;51.078;12.108;2023-06-26T07:12:52;24.00;90.40
35700;DHT22;21818;51.078;12.108;2023-06-26T07:15:18;24.00;90.30
35700;DHT22;21818;51.078;12.108;2023-06-26T07:17:43;24.00;90.30
35700;DHT22;21818;51.078;12.108;2023-06-26T07:20:09;24.00;90.30
35700;DHT22;21818;51.078;12.108;2023-06-26T07:22:40;24.10;90.30
35700;DHT22;21818;51.078;12.108;2023-06-26T07:25:06;24.10;90.20
35700;DHT22;21818;51.078;12.108;2023-06-26T07:27:37;24.10;90.20
35700;DHT22;21818;51.078;12.108;2023-06-26T07:30:03;24.10;90.20
35700;DHT22;21818;51.078;12.108;2023-06-26T07:32:29;24.20;90.20
35700;DHT22;21818;51.078;12.108;2023-06-26T07:34:55;24.20;90.10
35700;DHT22;21818;51.078;12.108;2023-06-26T07:37:20;24.20;90.10
35700;DHT22;21818;51.078;12.108;2023-06-26T07:39:46;24.20;90.10
35700;DHT22;21818;51.078;12.108;2023-06-26T07:42:12;24.20;90.00
35700;DHT22;21818;51.078;12.108;2023-06-26T07:44:38;24.20;90.00
35700;DHT22;21818;51.078;12.108;2023-06-26T07:47:03;24.20;90.00
35700;DHT22;21818;51.078;12.108;2023-06-26T07:49:29;24.30;90.00
35700;DHT22;21818;51.078;12.108;2023-06-26T07:51:55;24.20;89.90
35700;DHT22;21818;51.078;12.108;2023-06-26T07:54:20;24.30;89.80
35700;DHT22;21818;51.078;12.108;2023-06-26T07:57:05;24.30;89.80
35700;DHT22;21818;51.078;12.108;2023-06-26T07:59:32;24.30;89.70
35700;DHT22;21818;51.078;12.108;2023-06-26T08:01:58;24.30;89.70
35700;DHT22;21818;51.078;12.108;2023-06-26T08:04:26;24.30;89.60
35700;DHT22;21818;51.078;12.108;2023-06-26T08:06:53;24.30;89.60
35700;DHT22;21818;51.078;12.108;2023-06-26T08:09:20;24.30;89.50
35700;DHT22;21818;51.078;12.108;2023-06-26T08:11:46;24.40;89.50
35700;DHT22;21818;51.078;12.108;2023-06-26T08:14:12;24.40;89.50
35700;DHT22;21818;51.078;12.108;2023-06-26T08:16:39;24.40;89.40
35700;DHT22;21818;51.078;12.108;2023-06-26T08:19:05;24.40;89.30
35700;DHT22;21818;51.078;12.108;2023-06-26T08:21:30;24.40;89.30
35700;DHT22;21818;51.078;12.108;2023-06-26T08:23:56;24.50;89.30
35700;DHT22;21818;51.078;12.108;2023-06-26T08:26:22;24.50;89.20
35700;DHT22;21818;51.078;12.108;2023-06-26T08:28:47;24.50;89.20
35700;DHT22;21818;51.078;12.108;2023-06-26T08:31:13;24.50;89.10
35700;DHT22;21818;51.078;12.108;2023-06-26T08:33:38;24.50;89.10
35700;DHT22;21818;51.078;12.108;2023-06-26T08:36:04;24.50;89.00
35700;DHT22;21818;51.078;12.108;2023-06-26T08:38:29;24.50;88.90
35700;DHT22;21818;51.078;12.108;2023-06-26T08:40:55;24.50;88.90
35700;DHT22;21818;51.078;12.108;2023-06-26T08:43:21;24.50;88.80
35700;DHT22;21818;51.078;12.108;2023-06-26T08:45:47;24.50;88.80
35700;DHT22;21818;51.078;12.108;2023-06-26T08:48:17;24.50;88.70
35700;DHT22;21818;51.078;12.108;2023-06-26T08:50:43;24.60;88.70
35700;DHT22;21818;51.078;12.108;2023-06-26T08:56:19;24.60;88.60
35700;DHT22;21818;51.078;12.108;2023-06-26T08:58:47;24.60;88.60
35700;DHT22;21818;51.078;12.108;2023-06-26T09:01:13;24.60;88.50
35700;DHT22;21818;51.078;12.108;2023-06-26T09:03:39;24.60;88.50
35700;DHT22;21818;51.078;12.108;2023-06-26T09:06:07;24.60;88.40
35700;DHT22;21818;51.078;12.108;2023-06-26T09:08:32;24.60;88.30
35700;DHT22;21818;51.078;12.108;2023-06-26T09:10:58;24.70;88.30
35700;DHT22;21818;51.078;12.108;2023-06-26T09:13:24;24.70;88.30
35700;DHT22;21818;51.078;12.108;2023-06-26T09:15:49;24.70;88.20
35700;DHT22;21818;51.078;12.108;2023-06-26T09:18:18;24.70;88.20
35700;DHT22;21818;51.078;12.108;2023-06-26T09:20:45;24.70;88.10
35700;DHT22;21818;51.078;12.108;2023-06-26T09:23:10;24.70;88.00
35700;DHT22;21818;51.078;12.108;2023-06-26T09:25:39;24.80;88.10
35700;DHT22;21818;51.078;12.108;2023-06-26T09:28:05;24.80;87.90
35700;DHT22;21818;51.078;12.108;2023-06-26T09:30:32;24.80;87.90
35700;DHT22;21818;51.078;12.108;2023-06-26T09:33:13;24.80;87.90
35700;DHT22;21818;51.078;12.108;2023-06-26T09:35:39;24.80;87.80
35700;DHT22;21818;51.078;12.108;2023-06-26T09:38:04;24.80;87.80
35700;DHT22;21818;51.078;12.108;2023-06-26T09:40:30;24.80;87.70
35700;DHT22;21818;51.078;12.108;2023-06-26T09:43:03;24.80;87.70
35700;DHT22;21818;51.078;12.108;2023-06-26T09:45:31;24.80;87.60
35700;DHT22;21818;51.078;12.108;2023-06-26T09:48:00;24.80;87.50
35700;DHT22;21818;51.078;12.108;2023-06-26T09:50:28;24.90;87.50
35700;DHT22;21818;51.078;12.108;2023-06-26T09:52:55;24.90;87.50
35700;DHT22;21818;51.078;12.108;2023-06-26T09:55:21;24.80;87.40
35700;DHT22;21818;51.078;12.108;2023-06-26T09:57:52;24.90;87.40
35700;DHT22;21818;51.078;12.108;2023-06-26T10:00:19;24.90;87.30
35700;DHT22;21818;51.078;12.108;2023-06-26T10:02:44;24.90;87.30
35700;DHT22;21818;51.078;12.108;2023-06-26T10:05:10;24.90;87.30
35700;DHT22;21818;51.078;12.108;2023-06-26T10:07:37;24.90;87.20
35700;DHT22;21818;51.078;12.108;2023-06-26T10:10:05;24.90;87.20
35700;DHT22;21818;51.078;12.108;2023-06-26T10:12:32;24.90;87.10
35700;DHT22;21818;51.078;12.108;2023-06-26T10:14:59;24.90;87.10
35700;DHT22;21818;51.078;12.108;2023-06-26T10:17:34;25.00;87.10
35700;DHT22;21818;51.078;12.108;2023-06-26T10:20:02;25.00;87.00
35700;DHT22;21818;51.078;12.108;2023-06-26T10:22:31;25.00;87.00
35700;DHT22;21818;51.078;12.108;2023-06-26T10:24:59;25.00;86.90
35700;DHT22;21818;51.078;12.108;2023-06-26T10:27:30;25.00;86.90
35700;DHT22;21818;51.078;12.108;2023-06-26T10:30:02;25.00;86.80
35700;DHT22;21818;51.078;12.108;2023-06-26T10:32:28;25.00;86.80
35700;DHT22;21818;51.078;12.108;2023-06-26T10:34:55;25.00;86.80
35700;DHT22;21818;51.078;12.108;2023-06-26T10:37:21;25.00;86.70
35700;DHT22;21818;51.078;12.108;2023-06-26T10:40:06;25.00;86.70
35700;DHT22;21818;51.078;12.108;2023-06-26T10:42:35;25.00;86.70
35700;DHT22;21818;51.078;12.108;2023-06-26T10:45:17;25.00;86.60
35700;DHT22;21818;51.078;12.108;2023-06-26T10:47:46;25.10;86.60
35700;DHT22;21818;51.078;12.108;2023-06-26T10:50:27;25.10;86.60
35700;DHT22;21818;51.078;12.108;2023-06-26T10:55:32;25.10;86.50
35700;DHT22;21818;51.078;12.108;2023-06-26T10:57:58;25.10;86.50
35700;DHT22;21818;51.078;12.108;2023-06-26T11:00:23;25.10;86.50
35700;DHT22;21818;51.078;12.108;2023-06-26T11:02:52;25.10;86.40
35700;DHT22;21818;51.078;12.108;2023-06-26T11:05:29;25.10;86.40
35700;DHT22;21818;51.078;12.108;2023-06-26T11:08:08;25.10;86.30
35700;DHT22;21818;51.078;12.108;2023-06-26T11:10:53;25.10;86.30
35700;DHT22;21818;51.078;12.108;2023-06-26T11:13:20;25.20;86.30
35700;DHT22;21818;51.078;12.108;2023-06-26T11:15:50;25.20;86.30
35700;DHT22;21818;51.078;12.108;2023-06-26T11:18:16;25.20;86.30
35700;DHT22;21818;51.078;12.108;2023-06-26T11:20:42;25.20;86.30
35700;DHT22;21818;51.078;12.108;2023-06-26T11:23:08;25.20;86.20
35700;DHT22;21818;51.078;12.108;2023-06-26T11:25:38;25.20;86.20
35700;DHT22;21818;51.078;12.108;2023-06-26T11:28:09;25.20;86.10
35700;DHT22;21818;51.078;12.108;2023-06-26T11:30:36;25.20;86.10
35700;DHT22;21818;51.078;12.108;2023-06-26T11:33:07;25.20;86.10
35700;DHT22;21818;51.078;12.108;2023-06-26T11:35:33;25.20;86.10
35700;DHT22;21818;51.078;12.108;2023-06-26T11:38:00;25.20;86.10
35700;DHT22;21818;51.078;12.108;2023-06-26T11:40:29;25.20;86.10
35700;DHT22;21818;51.078;12.108;2023-06-26T11:43:03;25.20;86.10
35700;DHT22;21818;51.078;12.108;2023-06-26T11:45:29;25.20;86.10
35700;DHT22;21818;51.078;12.108;2023-06-26T11:47:56;25.20;86.10
35700;DHT22;21818;51.078;12.108;2023-06-26T11:50:23;25.30;86.10
35700;DHT22;21818;51.078;12.108;2023-06-26T11:52:58;25.30;86.10
35700;DHT22;21818;51.078;12.108;2023-06-26T11:55:25;25.30;86.00
35700;DHT22;21818;51.078;12.108;2023-06-26T11:57:55;25.30;86.00
35700;DHT22;21818;51.078;12.108;2023-06-26T12:00:21;25.30;86.00
35700;DHT22;21818;51.078;12.108;2023-06-26T12:02:47;25.30;86.00
35700;DHT22;21818;51.078;12.108;2023-06-26T12:05:16;25.30;86.00
35700;DHT22;21818;51.078;12.108;2023-06-26T12:07:48;25.30;86.00
35700;DHT22;21818;51.078;12.108;2023-06-26T12:10:15;25.30;85.90
35700;DHT22;21818;51.078;12.108;2023-06-26T12:12:42;25.30;85.90
35700;DHT22;21818;51.078;12.108;2023-06-26T12:15:12;25.30;85.90
35700;DHT22;21818;51.078;12.108;2023-06-26T12:17:38;25.40;86.50
35700;DHT22;21818;51.078;12.108;2023-06-26T12:20:05;25.30;85.90
35700;DHT22;21818;51.078;12.108;2023-06-26T12:22:35;25.40;85.90
35700;DHT22;21818;51.078;12.108;2023-06-26T12:25:01;25.40;85.80
35700;DHT22;21818;51.078;12.108;2023-06-26T12:27:27;25.40;85.80
35700;DHT22;21818;51.078;12.108;2023-06-26T12:29:53;25.40;85.80
35700;DHT22;21818;51.078;12.108;2023-06-26T12:32:21;25.40;85.80
35700;DHT22;21818;51.078;12.108;2023-06-26T12:34:49;25.40;85.70
35700;DHT22;21818;51.078;12.108;2023-06-26T12:37:15;25.40;85.70
35700;DHT22;21818;51.078;12.108;2023-06-26T12:42:24;25.40;85.60
35700;DHT22;21818;51.078;12.108;2023-06-26T12:44:51;25.40;85.60
35700;DHT22;21818;51.078;12.108;2023-06-26T12:47:17;25.40;85.60
35700;DHT22;21818;51.078;12.108;2023-06-26T12:49:45;25.40;85.50
35700;DHT22;21818;51.078;12.108;2023-06-26T12:52:15;25.50;85.60
35700;DHT22;21818;51.078;12.108;2023-06-26T12:54:42;25.50;85.50
35700;DHT22;21818;51.078;12.108;2023-06-26T12:57:09;25.50;85.50
35700;DHT22;21818;51.078;12.108;2023-06-26T12:59:36;25.50;85.50
35700;DHT22;21818;51.078;12.108;2023-06-26T13:02:03;25.50;85.40
35700;DHT22;21818;51.078;12.108;2023-06-26T13:04:29;25.50;85.40
35700;DHT22;21818;51.078;12.108;2023-06-26T13:06:54;25.50;85.30
35700;DHT22;21818;51.078;12.108;2023-06-26T13:09:21;25.50;85.30
35700;DHT22;21818;51.078;12.108;2023-06-26T13:11:47;25.50;85.30
35700;DHT22;21818;51.078;12.108;2023-06-26T13:14:12;25.50;85.20
35700;DHT22;21818;51.078;12.108;2023-06-26T13:16:38;25.60;85.20
35700;DHT22;21818;51.078;12.108;2023-06-26T13:19:03;25.60;85.20
35700;DHT22;21818;51.078;12.108;2023-06-26T13:21:29;25.60;85.20
35700;DHT22;21818;51.078;12.108;2023-06-26T13:23:56;25.60;85.10
35700;DHT22;21818;51.078;12.108;2023-06-26T13:26:22;25.60;85.10
35700;DHT22;21818;51.078;12.108;2023-06-26T13:28:48;25.60;85.10
35700;DHT22;21818;51.078;12.108;2023-06-26T13:31:14;25.60;85.00
35700;DHT22;21818;51.078;12.108;2023-06-26T13:33:40;25.60;85.00
35700;DHT22;21818;51.078;12.108;2023-06-26T13:36:05;25.70;85.00
35700;DHT22;21818;51.078;12.108;2023-06-26T13:38:33;25.70;85.00
35700;DHT22;21818;51.078;12.108;2023-06-26T13:41:00;25.70;84.90
35700;DHT22;21818;51.078;12.108;2023-06-26T13:43:26;25.70;84.90
35700;DHT22;21818;51.078;12.108;2023-06-26T13:45:52;25.70;84.90
35700;DHT22;21818;51.078;12.108;2023-06-26T13:48:18;25.70;84.80
35700;DHT22;21818;51.078;12.108;2023-06-26T13:50:44;25.70;84.70
35700;DHT22;21818;51.078;12.108;2023-06-26T13:53:10;25.70;84.70
35700;DHT22;21818;51.078;12.108;2023-06-26T13:55:35;25.70;84.70
35700;DHT22;21818;51.078;12.108;2023-06-26T13:58:03;25.80;84.70
35700;DHT22;21818;51.078;12.108;2023-06-26T14:00:34;25.80;84.60
35700;DHT22;21818;51.078;12.108;2023-06-26T14:03:00;25.80;84.60
35700;DHT22;21818;51.078;12.108;2023-06-26T14:05:26;25.80;84.60
35700;DHT22;21818;51.078;12.108;2023-06-26T14:07:52;25.80;84.50
35700;DHT22;21818;51.078;12.108;2023-06-26T14:10:20;25.90;84.50
35700;DHT22;21818;51.078;12.108;2023-06-26T14:12:45;25.90;84.50
35700;DHT22;21818;51.078;12.108;2023-06-26T14:15:11;25.90;84.40
35700;DHT22;21818;51.078;12.108;2023-06-26T14:17:36;25.90;84.40
35700;DHT22;21818;51.078;12.108;2023-06-26T14:20:06;25.90;84.30
35700;DHT22;21818;51.078;12.108;2023-06-26T14:22:34;25.90;84.30
35700;DHT22;21818;51.078;12.108;2023-06-26T14:24:59;25.90;84.20
35700;DHT22;21818;51.078;12.108;2023-06-26T14:27:25;25.90;84.20
35700;DHT22;21818;51.078;12.108;2023-06-26T14:29:50;26.00;84.20
35700;DHT22;21818;51.078;12.108;2023-06-26T14:32:16;26.00;84.20
35700;DHT22;21818;51.078;12.108;2023-06-26T14:34:41;26.10;89.00
35700;DHT22;21818;51.078;12.108;2023-06-26T14:37:07;26.30;89.70
35700;DHT22;21818;51.078;12.108;2023-06-26T14:39:32;26.50;90.60
35700;DHT22;21818;51.078;12.108;2023-06-26T14:41:58;26.90;89.90
35700;DHT22;21818;51.078;12.108;2023-06-26T14:44:23;27.50;88.70
35700;DHT22;21818;51.078;12.108;2023-06-26T14:46:49;27.80;87.60
35700;DHT22;21818;51.078;12.108;2023-06-26T14:49:14;27.90;86.60
35700;DHT22;21818;51.078;12.108;2023-06-26T14:51:40;27.60;86.70
35700;DHT22;21818;51.078;12.108;2023-06-26T14:54:06;27.30;87.00
35700;DHT22;21818;51.078;12.108;2023-06-26T14:56:31;27.10;87.20
35700;DHT22;21818;51.078;12.108;2023-06-26T14:58:57;26.90;87.30
35700;DHT22;21818;51.078;12.108;2023-06-26T15:01:23;26.80;87.30
35700;DHT22;21818;51.078;12.108;2023-06-26T15:03:48;26.80;87.40
35700;DHT22;21818;51.078;12.108;2023-06-26T15:06:14;26.70;87.40
35700;DHT22;21818;51.078;12.108;2023-06-26T15:08:40;26.70;87.50
35700;DHT22;21818;51.078;12.108;2023-06-26T15:11:06;26.60;87.50
35700;DHT22;21818;51.078;12.108;2023-06-26T15:13:31;26.60;87.60
35700;DHT22;21818;51.078;12.108;2023-06-26T15:15:57;26.50;87.60
35700;DHT22;21818;51.078;12.108;2023-06-26T15:18:22;26.50;87.60
35700;DHT22;21818;51.078;12.108;2023-06-26T15:20:48;26.50;87.60
35700;DHT22;21818;51.078;12.108;2023-06-26T15:23:13;26.50;87.60
35700;DHT22;21818;51.078;12.108;2023-06-26T15:25:39;26.50;87.60
35700;DHT22;21818;51.078;12.108;2023-06-26T15:28:08;26.50;87.60